Time;durP1;ratioP1;P1;durP2;ratioP2;P2;SDS_P1;SDS_P2;PMS_P1;PMS_P2;Temp;Humidity;BMP_temperature;BMP_pressure;BME280_temperature;BME280_humidity;BME280_pressure;Samples;Min_cycle;Max_cycle;Signal;HPM_P1;HPM_P2
2023/01/21 00:01:13;;;;;;;5.55;4.15;;;22.30;38.40;;;;;;6106041;28;82725;-58
2023/01/21 00:04:14;;;;;;;4.65;3.85;;;22.30;38.50;;;;;;6119726;28;83397;-58
2023/01/21 00:07:14;;;;;;;5.30;4.05;;;22.30;38.40;;;;;;6106756;28;80445;-59
2023/01/21 00:10:15;;;;;;;5.72;3.92;;;22.30;38.50;;;;;;6116232;28;81262;-59
2023/01/21 00:13:16;;;;;;;4.85;3.58;;;22.20;38.30;;;;;;6127064;28;83280;-58
2023/01/21 00:16:16;;;;;;;6.07;4.35;;;22.30;38.40;;;;;;6112359;28;81393;-59
2023/01/21 00:19:17;;;;;;;5.88;3.78;;;22.20;38.40;;;;;;6106135;28;83105;-59
2023/01/21 00:22:17;;;;;;;5.80;4.35;;;22.20;38.40;;;;;;6106979;28;80696;-58
2023/01/21 00:25:18;;;;;;;5.28;3.63;;;22.20;38.50;;;;;;6128670;28;80856;-60
2023/01/21 00:28:18;;;;;;;5.55;3.85;;;22.20;38.50;;;;;;6116033;28;81946;-60
2023/01/21 00:31:19;;;;;;;4.82;3.83;;;22.20;38.70;;;;;;6111250;28;82432;-58
2023/01/21 00:34:19;;;;;;;4.60;3.53;;;22.20;38.70;;;;;;6116703;28;81694;-59
2023/01/21 00:37:20;;;;;;;5.35;3.58;;;22.10;39.30;;;;;;6114585;28;80591;-59
2023/01/21 00:40:20;;;;;;;5.07;3.22;;;22.10;38.60;;;;;;6110121;28;80558;-59
2023/01/21 00:43:21;;;;;;;5.10;3.80;;;22.10;39.30;;;;;;6106578;28;81516;-59
2023/01/21 00:46:21;;;;;;;5.00;3.35;;;22.10;38.70;;;;;;6118531;28;81996;-59
2023/01/21 00:49:22;;;;;;;4.05;3.13;;;22.10;38.70;;;;;;6138757;28;80544;-59
2023/01/21 00:52:22;;;;;;;6.65;3.28;;;22.10;38.80;;;;;;6109520;28;80295;-59
2023/01/21 00:55:23;;;;;;;3.67;2.85;;;22.10;38.80;;;;;;6108634;28;80971;-59
2023/01/21 00:58:23;;;;;;;4.07;2.88;;;22.10;38.80;;;;;;6115572;28;80935;-59
2023/01/21 01:01:26;;;;;;;4.00;3.20;;;22.10;38.80;;;;;;6142528;28;81801;-59
2023/01/21 01:04:27;;;;;;;4.90;3.55;;;22.10;38.90;;;;;;6128725;28;81769;-59
2023/01/21 01:07:27;;;;;;;4.03;3.00;;;22.10;39.00;;;;;;6125025;28;80395;-60
2023/01/21 01:10:28;;;;;;;4.55;2.85;;;22.10;39.00;;;;;;6120087;28;80412;-59
2023/01/21 01:13:28;;;;;;;3.53;2.67;;;22.10;39.00;;;;;;6132615;28;80924;-59
2023/01/21 01:16:29;;;;;;;3.38;2.78;;;22.10;39.10;;;;;;6134637;28;81331;-58
2023/01/21 01:19:29;;;;;;;2.95;2.35;;;22.10;39.20;;;;;;6114451;28;80531;-60
2023/01/21 01:22:30;;;;;;;3.15;2.75;;;22.10;39.30;;;;;;6128355;28;80503;-59
2023/01/21 01:25:30;;;;;;;3.88;3.00;;;22.10;39.30;;;;;;6116926;28;80573;-60
2023/01/21 01:28:31;;;;;;;3.40;2.60;;;22.10;39.30;;;;;;6122104;28;80901;-59
2023/01/21 01:31:31;;;;;;;4.45;2.72;;;22.10;39.40;;;;;;6123569;28;81208;-60
2023/01/21 01:34:32;;;;;;;2.85;2.40;;;22.10;39.40;;;;;;6117318;28;80204;-59
2023/01/21 01:37:32;;;;;;;2.97;2.55;;;22.10;39.40;;;;;;6121271;28;80326;-59
2023/01/21 01:40:33;;;;;;;2.85;2.17;;;22.10;39.40;;;;;;6115448;28;81588;-60
2023/01/21 01:43:33;;;;;;;2.63;2.38;;;22.10;39.40;;;;;;6115518;28;80523;-59
2023/01/21 01:46:34;;;;;;;3.67;2.30;;;22.10;39.40;;;;;;6119063;28;81544;-59
2023/01/21 01:49:34;;;;;;;2.85;2.10;;;22.10;39.50;;;;;;6116945;28;80804;-60
2023/01/21 01:52:35;;;;;;;3.40;2.53;;;22.00;39.50;;;;;;6110857;28;80044;-59
2023/01/21 01:55:35;;;;;;;3.33;2.63;;;22.10;39.50;;;;;;6117955;28;80404;-59
2023/01/21 01:58:36;;;;;;;2.95;2.47;;;22.00;39.50;;;;;;6114893;28;81379;-60
2023/01/21 02:01:36;;;;;;;2.72;2.05;;;22.00;39.50;;;;;;6127803;28;81858;-59
2023/01/21 02:04:37;;;;;;;3.03;2.33;;;22.10;39.60;;;;;;6127661;28;81223;-60
2023/01/21 02:07:38;;;;;;;2.35;2.13;;;22.00;39.60;;;;;;6140493;28;80594;-60
2023/01/21 02:10:39;;;;;;;2.33;1.80;;;22.00;39.60;;;;;;6121580;28;80223;-59
2023/01/21 02:13:39;;;;;;;2.67;2.03;;;22.00;39.60;;;;;;6129236;28;85484;-59
2023/01/21 02:16:40;;;;;;;2.53;1.85;;;22.00;39.60;;;;;;6131454;28;80366;-59
2023/01/21 02:19:43;;;;;;;2.05;1.85;;;22.00;39.60;;;;;;6139010;28;80362;-59
2023/01/21 02:22:44;;;;;;;2.72;2.20;;;22.00;39.50;;;;;;6128780;28;82525;-59
2023/01/21 02:25:44;;;;;;;2.55;2.10;;;22.00;39.50;;;;;;6123359;28;80659;-59
2023/01/21 02:28:45;;;;;;;3.03;1.95;;;22.00;39.40;;;;;;6126523;28;80479;-60
2023/01/21 02:31:45;;;;;;;2.22;1.90;;;22.00;39.50;;;;;;6117292;28;80941;-59
2023/01/21 02:34:46;;;;;;;2.33;1.83;;;22.00;39.40;;;;;;6120177;28;80670;-59
2023/01/21 02:37:46;;;;;;;2.88;2.13;;;22.00;39.40;;;;;;6129543;28;82002;-59
2023/01/21 02:40:47;;;;;;;2.10;1.88;;;22.00;39.50;;;;;;6130215;28;80788;-59
2023/01/21 02:43:47;;;;;;;2.03;1.80;;;22.00;39.50;;;;;;6131521;28;80499;-60
2023/01/21 02:46:48;;;;;;;2.80;2.00;;;22.00;39.50;;;;;;6131726;28;81006;-59
2023/01/21 02:49:48;;;;;;;2.33;1.90;;;22.00;39.40;;;;;;6118596;28;81010;-59
2023/01/21 02:52:49;;;;;;;2.13;1.80;;;22.00;39.50;;;;;;6131475;28;81368;-59
2023/01/21 02:55:49;;;;;;;2.25;2.05;;;22.00;39.30;;;;;;6141594;28;83817;-59
2023/01/21 02:58:50;;;;;;;2.60;2.17;;;22.00;39.40;;;;;;6124409;28;80846;-60
2023/01/21 03:01:50;;;;;;;2.00;1.80;;;22.00;39.30;;;;;;6127541;28;80501;-60
2023/01/21 03:04:51;;;;;;;2.67;1.73;;;22.00;39.30;;;;;;6126801;28;80774;-60
2023/01/21 03:07:51;;;;;;;2.47;2.13;;;22.00;39.30;;;;;;6112375;28;83128;-58
2023/01/21 03:10:52;;;;;;;1.90;1.67;;;22.00;39.30;;;;;;6127853;28;82132;-58
2023/01/21 03:17:12;;;;;;;1.90;1.73;;;22.00;39.30;;;;;;6125217;28;81255;-58
2023/01/21 03:20:12;;;;;;;2.22;1.73;;;21.90;39.20;;;;;;6138914;28;80276;-58
2023/01/21 03:23:13;;;;;;;2.10;1.90;;;22.00;39.30;;;;;;6131021;28;80312;-58
2023/01/21 03:26:13;;;;;;;1.88;1.77;;;22.00;39.20;;;;;;6129851;28;80278;-58
2023/01/21 03:29:14;;;;;;;3.08;2.00;;;21.90;39.20;;;;;;6130890;28;81682;-59
2023/01/21 03:32:14;;;;;;;2.00;1.67;;;21.90;39.20;;;;;;6131351;28;80793;-58
2023/01/21 03:35:15;;;;;;;2.28;1.85;;;21.90;39.30;;;;;;6130179;28;80658;-59
2023/01/21 03:38:15;;;;;;;2.30;1.70;;;21.90;39.20;;;;;;6126138;28;81744;-53
2023/01/21 03:41:16;;;;;;;2.00;1.80;;;21.90;39.20;;;;;;6144024;28;80721;-54
2023/01/21 03:44:17;;;;;;;1.80;1.70;;;21.90;39.20;;;;;;6106971;28;80794;-52
2023/01/21 03:47:17;;;;;;;2.95;1.80;;;21.90;39.20;;;;;;6124249;28;82790;-54
2023/01/21 03:50:18;;;;;;;2.15;1.63;;;21.90;39.20;;;;;;6134440;28;81661;-55
2023/01/21 03:53:18;;;;;;;2.60;1.92;;;21.90;39.20;;;;;;6141736;28;80721;-56
2023/01/21 03:56:19;;;;;;;1.90;1.70;;;21.90;39.20;;;;;;6140797;28;81803;-54
2023/01/21 03:59:19;;;;;;;4.38;2.08;;;21.90;39.20;;;;;;6142406;28;81084;-54
2023/01/21 04:02:20;;;;;;;2.65;1.80;;;21.90;39.20;;;;;;6129957;28;80545;-54
2023/01/21 04:05:21;;;;;;;2.13;1.80;;;21.80;39.20;;;;;;6139085;28;81596;-53
2023/01/21 04:08:21;;;;;;;1.73;1.55;;;21.90;39.20;;;;;;6119957;28;83099;-53
2023/01/21 04:11:22;;;;;;;2.08;1.80;;;21.80;39.20;;;;;;6120534;28;81738;-55
2023/01/21 04:14:22;;;;;;;1.50;1.40;;;21.90;39.20;;;;;;6129816;28;82367;-53
2023/01/21 04:17:23;;;;;;;2.13;1.60;;;21.90;39.20;;;;;;6141653;28;80668;-55
2023/01/21 04:20:23;;;;;;;1.67;1.40;;;22.00;39.30;;;;;;6140583;28;80927;-55
2023/01/21 04:23:24;;;;;;;1.60;1.48;;;22.00;39.10;;;;;;6130457;28;80910;-54
2023/01/21 04:26:24;;;;;;;1.85;1.40;;;22.10;39.00;;;;;;6127811;28;80814;-57
2023/01/21 04:29:25;;;;;;;1.55;1.30;;;22.10;38.90;;;;;;6141496;28;80314;-55
2023/01/21 04:32:25;;;;;;;1.55;1.40;;;22.20;38.90;;;;;;6127771;28;80503;-59
2023/01/21 04:35:26;;;;;;;1.42;1.33;;;22.20;38.80;;;;;;6127900;28;82317;-58
2023/01/21 04:38:26;;;;;;;1.48;1.35;;;22.30;38.70;;;;;;6133032;28;80681;-57
2023/01/21 04:41:27;;;;;;;1.58;1.40;;;22.30;38.70;;;;;;6133599;28;81248;-59
2023/01/21 04:44:27;;;;;;;1.58;1.20;;;22.30;38.60;;;;;;6121299;28;80251;-59
2023/01/21 04:47:28;;;;;;;1.55;1.45;;;22.40;38.60;;;;;;6119128;28;81948;-59
2023/01/21 04:50:28;;;;;;;2.47;1.40;;;22.40;38.60;;;;;;6121965;28;80895;-59
2023/01/21 04:53:29;;;;;;;1.40;1.20;;;22.40;38.50;;;;;;6128295;28;82347;-54
2023/01/21 04:56:29;;;;;;;1.58;1.15;;;22.50;38.50;;;;;;6129155;28;80248;-55
2023/01/21 04:59:30;;;;;;;1.20;1.10;;;22.50;38.40;;;;;;6128135;28;80515;-54
2023/01/21 05:02:30;;;;;;;1.80;1.38;;;22.50;38.40;;;;;;6126806;28;80832;-55
2023/01/21 05:05:31;;;;;;;1.30;1.20;;;22.50;38.30;;;;;;6127298;28;81686;-52
2023/01/21 05:08:31;;;;;;;1.23;1.13;;;22.60;38.40;;;;;;6116211;28;80400;-52
2023/01/21 05:11:32;;;;;;;1.30;1.20;;;22.60;38.40;;;;;;6119518;28;81224;-55
2023/01/21 05:14:32;;;;;;;1.90;1.40;;;22.60;38.30;;;;;;6127473;28;80266;-55
2023/01/21 05:17:33;;;;;;;1.20;1.10;;;22.60;38.30;;;;;;6111947;28;80777;-53
2023/01/21 05:20:34;;;;;;;1.65;1.20;;;22.60;38.20;;;;;;6117066;28;80849;-51
2023/01/21 05:23:34;;;;;;;1.33;1.20;;;22.60;38.20;;;;;;6109492;28;80646;-53
2023/01/21 05:26:35;;;;;;;2.05;1.42;;;22.70;38.30;;;;;;6116051;28;80153;-53
2023/01/21 05:29:35;;;;;;;1.23;1.10;;;22.70;38.20;;;;;;6107982;28;80527;-55
2023/01/21 05:32:36;;;;;;;1.50;1.40;;;22.70;38.20;;;;;;6124111;28;80823;-55
2023/01/21 05:35:36;;;;;;;1.55;1.33;;;22.70;38.20;;;;;;6127146;28;80397;-54
2023/01/21 05:38:37;;;;;;;1.33;1.23;;;22.80;38.20;;;;;;6128784;28;81981;-55
2023/01/21 05:41:37;;;;;;;1.45;1.30;;;22.70;38.00;;;;;;6128464;28;82437;-53
2023/01/21 05:44:38;;;;;;;1.90;1.25;;;22.80;38.00;;;;;;6127873;28;80458;-50
2023/01/21 05:47:38;;;;;;;1.30;1.20;;;22.80;38.00;;;;;;6131698;28;80474;-50
2023/01/21 05:50:39;;;;;;;1.30;1.20;;;22.80;38.00;;;;;;6127635;28;84619;-49
2023/01/21 05:53:39;;;;;;;1.38;1.10;;;22.80;37.90;;;;;;6127583;28;80630;-50
2023/01/21 05:56:40;;;;;;;1.17;1.08;;;22.80;37.90;;;;;;6127760;28;80588;-51
2023/01/21 05:59:40;;;;;;;1.83;1.38;;;22.80;37.80;;;;;;6120621;28;80003;-51
2023/01/21 06:02:41;;;;;;;1.48;1.20;;;22.80;37.80;;;;;;6127559;28;80620;-50
2023/01/21 06:05:41;;;;;;;1.48;1.20;;;22.80;37.80;;;;;;6128899;28;80181;-52
2023/01/21 06:08:42;;;;;;;1.50;1.13;;;22.80;37.80;;;;;;6125721;28;83711;-54
2023/01/21 06:11:42;;;;;;;1.20;1.10;;;22.80;37.90;;;;;;6118815;28;80311;-54
2023/01/21 06:14:43;;;;;;;1.42;1.00;;;22.80;37.80;;;;;;6127667;28;80256;-55
2023/01/21 06:17:44;;;;;;;1.50;1.40;;;22.80;37.80;;;;;;6126849;28;80696;-54
2023/01/21 06:20:44;;;;;;;1.10;1.00;;;22.80;37.90;;;;;;6127966;28;80763;-55
2023/01/21 06:23:45;;;;;;;1.35;1.05;;;22.80;38.00;;;;;;6127579;28;80404;-56
2023/01/21 06:26:45;;;;;;;1.33;1.10;;;22.80;38.00;;;;;;6128334;28;80904;-56
2023/01/21 06:29:46;;;;;;;1.42;1.10;;;22.70;38.00;;;;;;6127724;28;80655;-54
2023/01/21 06:32:46;;;;;;;1.63;1.45;;;22.70;38.10;;;;;;6127394;28;80482;-54
2023/01/21 06:35:47;;;;;;;1.10;1.00;;;22.70;38.10;;;;;;6126695;28;80202;-54
2023/01/21 06:38:47;;;;;;;1.40;1.30;;;22.70;38.20;;;;;;6127043;28;81006;-52
2023/01/21 06:41:48;;;;;;;1.20;1.10;;;22.60;38.20;;;;;;6131482;28;80834;-55
2023/01/21 06:44:48;;;;;;;1.20;1.10;;;22.60;38.30;;;;;;6135248;28;80593;-53
2023/01/21 06:47:49;;;;;;;1.30;1.20;;;22.60;38.30;;;;;;6137323;28;80252;-52
2023/01/21 06:50:49;;;;;;;1.15;0.95;;;22.60;38.20;;;;;;6129294;28;80411;-51
2023/01/21 06:53:50;;;;;;;1.42;1.33;;;22.60;38.20;;;;;;6134358;28;80455;-54
2023/01/21 06:56:50;;;;;;;3.08;1.38;;;22.50;38.10;;;;;;6121239;28;80867;-61
2023/01/21 06:59:51;;;;;;;1.50;1.40;;;22.50;38.20;;;;;;6134694;28;80384;-60
2023/01/21 07:02:51;;;;;;;1.58;1.20;;;22.40;38.10;;;;;;6133012;28;80838;-60
2023/01/21 07:05:52;;;;;;;1.50;1.20;;;22.40;38.10;;;;;;6129061;28;80411;-55
2023/01/21 07:08:52;;;;;;;1.35;1.20;;;22.40;38.10;;;;;;6130421;28;80566;-54
2023/01/21 07:11:54;;;;;;;2.03;1.20;;;22.40;38.10;;;;;;6141576;28;81635;-55
2023/01/21 07:14:54;;;;;;;1.17;1.08;;;22.30;38.10;;;;;;6127878;28;80374;-53
2023/01/21 07:17:55;;;;;;;3.88;1.40;;;22.30;38.00;;;;;;6134103;28;80290;-52
2023/01/21 07:20:56;;;;;;;1.02;1.00;;;22.20;37.90;;;;;;6137892;28;80453;-54
2023/01/21 07:23:56;;;;;;;2.10;1.27;;;22.20;37.80;;;;;;6144906;28;80487;-55
2023/01/21 07:26:57;;;;;;;2.05;1.40;;;22.20;37.80;;;;;;6128239;28;80392;-55
2023/01/21 07:29:57;;;;;;;1.80;1.50;;;22.20;37.70;;;;;;6127634;28;81759;-53
2023/01/21 07:32:58;;;;;;;1.73;1.40;;;22.20;37.60;;;;;;6127406;28;82014;-54
2023/01/21 07:35:58;;;;;;;3.22;1.73;;;22.20;37.70;;;;;;6126610;28;80922;-54
2023/01/21 07:38:59;;;;;;;2.00;1.40;;;22.10;37.60;;;;;;6127156;28;81518;-53
2023/01/21 07:42:00;;;;;;;1.88;1.60;;;22.10;37.50;;;;;;6135087;28;80378;-54
2023/01/21 07:45:02;;;;;;;4.10;1.60;;;22.10;38.20;;;;;;6137065;28;81119;-53
2023/01/21 07:48:03;;;;;;;1.50;1.20;;;22.10;37.50;;;;;;6132973;28;80487;-55
2023/01/21 07:51:03;;;;;;;1.98;1.50;;;22.10;37.50;;;;;;6139333;28;81379;-55
2023/01/21 07:54:04;;;;;;;1.88;1.40;;;22.10;38.00;;;;;;6127978;28;87642;-55
2023/01/21 07:57:04;;;;;;;3.17;2.13;;;22.10;37.40;;;;;;6130406;28;82929;-54
2023/01/21 08:00:05;;;;;;;2.65;2.00;;;22.10;37.30;;;;;;6135571;28;80543;-54
2023/01/21 08:03:11;;;;;;;2.40;2.20;;;22.10;37.30;;;;;;6142746;28;80531;-53
2023/01/21 08:06:12;;;;;;;3.15;1.73;;;22.00;37.30;;;;;;6127805;28;80810;-53
2023/01/21 08:09:13;;;;;;;3.88;1.70;;;22.00;37.30;;;;;;6128970;28;81278;-55
2023/01/21 08:12:13;;;;;;;1.83;1.60;;;22.00;37.40;;;;;;6122072;28;80646;-55
2023/01/21 08:15:14;;;;;;;2.08;1.60;;;22.00;37.40;;;;;;6130162;28;80413;-56
2023/01/21 08:18:14;;;;;;;2.85;1.73;;;22.00;37.50;;;;;;6129408;28;81473;-55
2023/01/21 08:21:15;;;;;;;1.67;1.48;;;22.00;37.60;;;;;;6130015;28;80395;-55
2023/01/21 08:24:15;;;;;;;2.72;1.60;;;22.00;37.80;;;;;;6130053;28;81439;-54
2023/01/21 08:27:16;;;;;;;2.03;1.67;;;22.10;37.50;;;;;;6129947;28;80943;-55
2023/01/21 08:30:16;;;;;;;1.83;1.70;;;22.00;37.50;;;;;;6142326;28;80567;-56
2023/01/21 08:33:17;;;;;;;2.65;1.77;;;22.10;37.50;;;;;;6128591;28;81578;-53
2023/01/21 08:36:17;;;;;;;2.42;2.13;;;22.10;37.40;;;;;;6130078;28;80413;-53
2023/01/21 08:39:18;;;;;;;2.58;1.90;;;22.10;37.20;;;;;;6103944;28;82297;-52
2023/01/21 08:42:18;;;;;;;2.95;2.00;;;22.20;37.30;;;;;;6100707;28;85118;-51
2023/01/21 08:45:19;;;;;;;3.72;2.00;;;22.30;37.40;;;;;;6112624;28;80559;-54
2023/01/21 08:48:19;;;;;;;2.55;2.00;;;22.30;37.30;;;;;;6119055;28;82102;-55
2023/01/21 08:51:20;;;;;;;3.17;1.90;;;22.40;37.50;;;;;;6124180;28;81862;-55
2023/01/21 08:54:20;;;;;;;4.80;1.88;;;22.40;37.50;;;;;;6118709;28;80792;-55
2023/01/21 08:57:21;;;;;;;2.55;1.52;;;22.50;37.50;;;;;;6099727;28;80992;-59
2023/01/21 09:00:22;;;;;;;1.92;1.65;;;22.50;37.70;;;;;;6121689;28;80210;-53
2023/01/21 09:03:23;;;;;;;3.03;2.38;;;22.60;37.60;;;;;;6120668;28;81036;-57
2023/01/21 09:06:24;;;;;;;1.70;1.60;;;22.60;37.60;;;;;;6102749;28;81624;-54
2023/01/21 09:09:25;;;;;;;2.92;2.20;;;22.60;37.60;;;;;;6128113;28;81055;-53
2023/01/21 09:12:26;;;;;;;2.00;1.83;;;22.60;37.70;;;;;;6121294;28;80083;-55
2023/01/21 09:15:26;;;;;;;3.15;2.10;;;22.70;38.00;;;;;;6126075;28;82410;-62
2023/01/21 09:18:27;;;;;;;2.95;1.77;;;22.70;38.00;;;;;;6138383;28;80599;-53
2023/01/21 09:21:28;;;;;;;4.30;1.90;;;22.70;38.00;;;;;;6120261;28;80487;-53
2023/01/21 09:24:28;;;;;;;3.05;1.80;;;22.80;38.00;;;;;;6124706;28;82905;-54
2023/01/21 09:27:29;;;;;;;2.53;1.77;;;22.80;38.10;;;;;;6129477;28;81215;-53
2023/01/21 09:30:30;;;;;;;4.78;2.45;;;22.70;37.90;;;;;;6122670;28;80325;-52
2023/01/21 09:33:30;;;;;;;4.93;2.08;;;22.70;38.10;;;;;;6124256;28;80432;-53
2023/01/21 09:36:31;;;;;;;4.13;2.42;;;22.70;38.10;;;;;;6127388;28;81700;-51
2023/01/21 09:39:31;;;;;;;2.80;2.13;;;22.70;38.20;;;;;;6155021;28;81055;-52
2023/01/21 09:42:32;;;;;;;1.85;1.75;;;22.80;38.30;;;;;;6144497;28;81999;-50
2023/01/21 09:45:32;;;;;;;3.63;2.30;;;22.70;38.10;;;;;;6126375;28;82206;-53
2023/01/21 09:48:33;;;;;;;2.80;2.08;;;22.70;38.30;;;;;;6142730;28;81451;-50
2023/01/21 09:51:33;;;;;;;2.78;2.08;;;22.60;38.20;;;;;;6115382;28;80361;-49
2023/01/21 09:54:34;;;;;;;3.38;2.20;;;22.70;38.40;;;;;;6105442;28;80998;-53
2023/01/21 09:57:34;;;;;;;4.32;2.40;;;22.60;38.30;;;;;;6117648;28;80704;-53
2023/01/21 10:00:35;;;;;;;3.10;2.20;;;22.60;38.20;;;;;;6120720;28;80342;-49
2023/01/21 10:03:36;;;;;;;2.88;2.13;;;22.60;38.20;;;;;;6106295;28;80128;-53
2023/01/21 10:06:37;;;;;;;2.53;2.20;;;22.60;38.30;;;;;;6104268;28;80752;-52
2023/01/21 10:09:37;;;;;;;3.45;2.40;;;22.60;38.30;;;;;;6107725;28;80388;-54
2023/01/21 10:12:38;;;;;;;3.10;2.50;;;22.50;38.40;;;;;;6111824;28;80163;-49
2023/01/21 10:15:38;;;;;;;3.78;2.38;;;22.50;38.40;;;;;;6117907;28;80439;-54
2023/01/21 10:18:39;;;;;;;3.45;2.38;;;22.50;38.20;;;;;;6104283;28;80458;-52
2023/01/21 10:21:39;;;;;;;3.88;2.72;;;22.50;38.30;;;;;;6127978;28;80838;-53
2023/01/21 10:24:40;;;;;;;3.55;2.92;;;22.40;38.40;;;;;;6108229;28;81262;-61
2023/01/21 10:27:41;;;;;;;3.22;2.53;;;22.40;38.30;;;;;;6119215;28;82674;-61
2023/01/21 10:30:41;;;;;;;2.67;2.17;;;22.40;38.30;;;;;;6110044;28;80494;-61
2023/01/21 10:33:42;;;;;;;2.90;2.28;;;22.50;38.20;;;;;;6114534;28;82574;-51
2023/01/21 10:36:42;;;;;;;3.53;2.60;;;22.50;38.30;;;;;;6121309;28;80868;-51
2023/01/21 10:39:43;;;;;;;4.88;2.88;;;22.50;38.30;;;;;;6124720;28;80397;-55
2023/01/21 10:42:43;;;;;;;4.35;3.03;;;22.50;38.70;;;;;;6113828;28;80300;-53
2023/01/21 10:45:44;;;;;;;6.82;3.13;;;22.50;38.70;;;;;;6113607;28;80582;-54
2023/01/21 10:48:44;;;;;;;4.82;2.88;;;22.40;38.90;;;;;;6125509;28;83657;-54
2023/01/21 10:51:45;;;;;;;5.88;2.80;;;22.50;39.10;;;;;;6124656;28;83053;-54
2023/01/21 10:54:45;;;;;;;3.85;3.08;;;22.50;39.30;;;;;;6108868;28;81020;-61
2023/01/21 10:57:46;;;;;;;4.75;2.80;;;22.50;39.30;;;;;;6121230;28;84611;-61
2023/01/21 11:00:46;;;;;;;5.28;3.03;;;22.40;39.20;;;;;;6117453;28;80348;-61
2023/01/21 11:03:47;;;;;;;8.05;3.30;;;22.40;39.00;;;;;;6106116;28;80944;-60
2023/01/21 11:06:48;;;;;;;6.30;3.55;;;22.40;38.80;;;;;;6116637;28;82501;-58
2023/01/21 11:09:48;;;;;;;5.78;3.60;;;22.40;38.90;;;;;;6120441;28;81683;-58
2023/01/21 11:12:49;;;;;;;3.47;3.08;;;22.40;39.00;;;;;;6120836;28;80507;-58
2023/01/21 11:15:49;;;;;;;7.13;3.58;;;22.40;38.90;;;;;;6124292;28;80859;-59
2023/01/21 11:18:50;;;;;;;5.38;3.53;;;22.40;38.90;;;;;;6112312;28;82686;-54
2023/01/21 11:21:50;;;;;;;5.20;3.30;;;22.40;39.20;;;;;;6113794;28;81570;-53
2023/01/21 11:24:51;;;;;;;4.38;3.22;;;22.40;39.30;;;;;;6103992;28;79960;-55
2023/01/21 11:27:52;;;;;;;6.10;3.33;;;22.40;40.00;;;;;;6113339;28;80357;-54
2023/01/21 11:30:52;;;;;;;9.73;3.33;;;22.30;39.40;;;;;;6119295;28;80885;-54
2023/01/21 11:33:53;;;;;;;7.60;3.50;;;22.40;39.60;;;;;;6119459;28;80489;-53
2023/01/21 11:36:54;;;;;;;5.85;3.58;;;22.30;39.50;;;;;;6118177;28;81311;-59
2023/01/21 11:39:54;;;;;;;4.65;3.80;;;22.40;39.50;;;;;;6125739;28;80622;-60
2023/01/21 11:42:55;;;;;;;9.32;3.90;;;22.40;39.80;;;;;;6127629;28;80866;-62
2023/01/21 11:45:56;;;;;;;8.15;4.38;;;22.30;39.80;;;;;;6127822;28;81506;-59
2023/01/21 11:48:56;;;;;;;5.85;3.50;;;22.30;39.60;;;;;;6132645;28;82484;-59
2023/01/21 11:51:57;;;;;;;7.63;3.90;;;22.40;39.80;;;;;;6115554;28;80445;-61
2023/01/21 11:54:57;;;;;;;6.95;3.83;;;22.40;40.00;;;;;;6136881;28;81034;-61
2023/01/21 11:57:58;;;;;;;6.40;4.05;;;22.40;39.60;;;;;;6115423;28;81726;-60
2023/01/21 12:00:58;;;;;;;5.13;3.58;;;22.40;39.50;;;;;;6121234;28;80615;-60
2023/01/21 12:03:59;;;;;;;7.18;4.22;;;22.40;39.40;;;;;;6127200;28;81757;-60
2023/01/21 12:07:00;;;;;;;7.68;4.15;;;22.50;39.40;;;;;;6124082;28;80118;-61
2023/01/21 12:10:00;;;;;;;9.50;4.70;;;22.50;39.30;;;;;;6131306;28;80740;-60
2023/01/21 12:13:01;;;;;;;6.07;3.97;;;22.50;39.30;;;;;;6130780;28;83311;-60
2023/01/21 12:16:02;;;;;;;5.88;4.10;;;22.60;39.60;;;;;;6121759;28;82244;-60
2023/01/21 12:19:03;;;;;;;6.35;3.88;;;22.60;39.50;;;;;;6138307;28;80348;-60
2023/01/21 12:22:03;;;;;;;6.50;4.32;;;22.60;39.60;;;;;;6148244;28;80755;-61
2023/01/21 12:25:04;;;;;;;5.78;4.10;;;22.60;39.70;;;;;;6152767;28;80941;-62
2023/01/21 12:28:04;;;;;;;6.53;4.68;;;22.60;39.80;;;;;;6143961;28;81560;-66
2023/01/21 12:31:05;;;;;;;7.43;4.93;;;22.60;39.80;;;;;;6112941;28;80357;-62
2023/01/21 12:34:05;;;;;;;6.82;4.80;;;22.60;39.80;;;;;;6114743;28;80518;-62
2023/01/21 12:37:06;;;;;;;9.95;4.45;;;22.50;39.80;;;;;;6117640;28;80145;-65
2023/01/21 12:40:06;;;;;;;13.43;4.53;;;22.50;40.50;;;;;;6120166;28;80781;-65
2023/01/21 12:43:07;;;;;;;7.88;4.07;;;22.50;39.60;;;;;;6119930;28;79939;-69
2023/01/21 12:46:09;;;;;;;10.85;4.93;;;22.50;39.50;;;;;;6110312;28;80674;-67
2023/01/21 12:49:09;;;;;;;6.35;4.15;;;22.50;39.50;;;;;;6134807;28;80398;-65
2023/01/21 12:52:10;;;;;;;9.68;4.95;;;22.50;39.40;;;;;;6115601;28;80535;-63
2023/01/21 12:55:11;;;;;;;8.52;5.07;;;22.50;39.10;;;;;;6116272;28;83535;-60
2023/01/21 12:58:12;;;;;;;9.02;5.45;;;22.50;39.10;;;;;;6114885;28;81156;-60
2023/01/21 13:01:12;;;;;;;8.82;5.70;;;22.50;39.10;;;;;;6125903;28;81508;-61
2023/01/21 13:04:13;;;;;;;9.52;5.50;;;22.50;39.30;;;;;;6117070;28;82053;-61
2023/01/21 13:07:14;;;;;;;9.43;5.45;;;22.50;39.10;;;;;;6113356;28;80459;-67
2023/01/21 13:10:14;;;;;;;9.07;5.28;;;22.50;39.20;;;;;;6114907;28;81138;-61
2023/01/21 13:13:15;;;;;;;9.82;5.72;;;22.50;39.50;;;;;;6124482;28;81970;-61
2023/01/21 13:16:15;;;;;;;8.60;5.38;;;22.50;39.80;;;;;;6130882;28;82404;-61
2023/01/21 13:19:16;;;;;;;8.48;4.82;;;22.50;39.80;;;;;;6123161;28;80861;-59
2023/01/21 13:22:16;;;;;;;10.65;6.00;;;22.50;39.80;;;;;;6112411;28;83372;-61
2023/01/21 13:25:17;;;;;;;10.65;5.75;;;22.50;39.60;;;;;;6129206;28;80327;-61
2023/01/21 13:28:17;;;;;;;9.07;6.45;;;22.40;39.60;;;;;;6125922;28;80501;-64
2023/01/21 13:31:18;;;;;;;11.20;6.20;;;22.40;39.80;;;;;;6110981;28;80163;-67
2023/01/21 13:34:18;;;;;;;9.45;6.53;;;22.40;40.00;;;;;;6116428;28;84992;-65
2023/01/21 13:37:19;;;;;;;13.63;7.25;;;22.40;40.00;;;;;;6112191;28;81462;-67
2023/01/21 13:40:19;;;;;;;16.23;7.40;;;22.30;39.70;;;;;;6122253;28;81091;-67
2023/01/21 13:43:20;;;;;;;12.52;7.40;;;22.30;39.50;;;;;;6127485;28;80537;-66
2023/01/21 13:46:20;;;;;;;11.55;7.97;;;22.30;39.60;;;;;;6128523;28;81066;-75
2023/01/21 13:49:21;;;;;;;12.10;7.60;;;22.30;39.40;;;;;;6130900;28;80472;-65
2023/01/21 13:52:21;;;;;;;10.98;7.70;;;22.30;39.30;;;;;;6132055;28;80512;-71
2023/01/21 13:55:22;;;;;;;11.60;8.00;;;22.20;39.00;;;;;;6139297;28;81723;-64
2023/01/21 13:58:22;;;;;;;13.68;8.50;;;22.20;38.80;;;;;;6116028;28;81123;-64
2023/01/21 14:01:23;;;;;;;11.45;8.10;;;22.10;38.40;;;;;;6126127;28;80528;-65
2023/01/21 14:04:23;;;;;;;12.68;8.10;;;22.20;38.50;;;;;;6135789;28;83412;-68
2023/01/21 14:07:24;;;;;;;11.30;8.23;;;22.10;38.60;;;;;;6132912;28;81371;-66
2023/01/21 14:10:24;;;;;;;11.00;7.40;;;22.10;38.90;;;;;;6127477;28;80639;-65
2023/01/21 14:13:25;;;;;;;11.05;7.07;;;22.10;39.30;;;;;;6138465;28;81001;-66
2023/01/21 14:16:25;;;;;;;9.88;7.22;;;22.10;39.60;;;;;;6137720;28;81359;-63
2023/01/21 14:19:26;;;;;;;8.73;6.70;;;22.20;39.50;;;;;;6128235;28;80957;-63
2023/01/21 14:22:26;;;;;;;9.45;7.15;;;22.10;39.50;;;;;;6112743;28;80270;-64
2023/01/21 14:25:27;;;;;;;9.15;6.88;;;22.10;39.70;;;;;;6123446;28;81560;-64
2023/01/21 14:28:27;;;;;;;9.60;6.80;;;22.10;40.30;;;;;;6130135;28;80369;-64
2023/01/21 14:31:28;;;;;;;12.15;7.47;;;22.10;40.70;;;;;;6137590;28;81131;-64
2023/01/21 14:34:29;;;;;;;10.27;6.68;;;22.10;40.50;;;;;;6132609;28;80822;-63
2023/01/21 14:37:29;;;;;;;14.15;7.32;;;22.10;40.70;;;;;;6139740;28;80622;-63
2023/01/21 14:40:30;;;;;;;12.05;7.28;;;22.10;40.80;;;;;;6126239;28;80397;-63
2023/01/21 14:43:30;;;;;;;13.43;7.32;;;22.10;40.70;;;;;;6134553;28;81022;-63
2023/01/21 14:46:32;;;;;;;14.82;7.90;;;22.10;40.80;;;;;;6153973;28;81781;-63
2023/01/21 14:49:33;;;;;;;12.40;7.93;;;22.10;40.80;;;;;;6150985;28;81265;-63
2023/01/21 14:52:33;;;;;;;13.07;8.38;;;22.10;41.30;;;;;;6132071;28;80938;-64
2023/01/21 14:55:34;;;;;;;24.58;16.73;;;22.10;41.30;;;;;;6130638;28;80588;-63
2023/01/21 14:58:34;;;;;;;41.33;26.42;;;22.10;41.50;;;;;;6126148;28;83316;-61
2023/01/21 15:01:35;;;;;;;32.85;23.73;;;22.10;42.10;;;;;;6138345;28;83241;-63
2023/01/21 15:04:38;;;;;;;31.13;21.25;;;22.10;41.90;;;;;;6139221;28;83009;-64
2023/01/21 15:07:39;;;;;;;30.45;19.27;;;22.10;41.80;;;;;;6130340;28;84467;-63
2023/01/21 15:10:39;;;;;;;27.95;17.58;;;22.10;41.60;;;;;;6112973;28;88108;-61
2023/01/21 15:13:40;;;;;;;23.25;16.23;;;22.10;41.20;;;;;;6125262;28;82819;-62
2023/01/21 15:16:41;;;;;;;22.67;15.23;;;22.10;41.20;;;;;;6118244;28;83563;-59
2023/01/21 15:19:41;;;;;;;22.27;15.23;;;22.10;41.00;;;;;;6121373;28;84796;-59
2023/01/21 15:22:45;;;;;;;22.95;14.70;;;22.10;40.90;;;;;;6118661;28;83132;-61
2023/01/21 15:25:46;;;;;;;20.52;14.88;;;22.20;40.80;;;;;;6130697;28;88570;-61
2023/01/21 15:28:46;;;;;;;20.85;15.75;;;22.20;40.70;;;;;;6104505;28;83258;-61
2023/01/21 15:31:47;;;;;;;20.10;15.60;;;22.30;40.60;;;;;;6114638;28;83570;-61
2023/01/21 15:34:47;;;;;;;17.83;14.32;;;22.40;40.60;;;;;;6118415;28;83145;-62
2023/01/21 15:37:48;;;;;;;35.42;16.75;;;22.50;40.70;;;;;;6123210;28;86630;-61
2023/01/21 15:40:49;;;;;;;26.98;15.18;;;22.60;40.60;;;;;;6120181;28;83240;-61